Valrico, FL (33594)

1:07 AM EST on December 04, 2016 (GMT -0500)
Innergary Point - Hardin Diamond Cut Lawn Care 'LLC (813-382-8119) | | Change Station

Elev 105 ft 27.93 °N, 82.25 °W | Updated 1 second ago

Clear
Clear
61.9 °F
Feels Like 61.9 °F
N
1.0
Wind Variable Wind from WNW
Gusts 4.0 mph

Today
High -- | Low -- °F
--% Chance of Precip.
Yesterday
High -- | Low -- °F
Precip. -- in
Pressure 30.11 in
Visibility 10.0 miles
Clouds Clear
Dew Point 59 °F
Humidity 89%
Rainfall 0.00 in
Snow Depth Not available.
7:05 AM 5:33 PM
Waxing Crescent, 20% visible
METAR KPCM 040555Z AUTO 08004KT 10SM CLR 17/16 A3011 RMK AO2
Pressure 30.11 in
Visibility 10.0 miles
Clouds Clear
Dew Point 59 °F
Humidity 89%
Rainfall 0.00 in
Snow Depth Not available.
7:05 AM 5:33 PM
Waxing Crescent, 20% visible
METAR KPCM 040555Z AUTO 08004KT 10SM CLR 17/16 A3011 RMK AO2

10-Day Weather Forecast

Almanac

Astronomy

Dec. 04, 2016 Rise Set
Actual Time
Civil Twilight
Nautical Twilight
Astronomical Twilight
Moon
Length of Visible Light
Length of Day
Tomorrow will be .
, % of the Moon is Illuminated

Today's Extremes

State Highs State Lows

Community

WunderPhotos

Upload Photos

1,955,587 photos uploaded!

WunderBlog® & News

Nearby

Air Quality

  Air Quality AQ Index Pollutant
Not available.

Snow Depth

Station Depth Elevation

Earthquake Activity

City Distance Mag. Time & Date
Minimum magnitude displayed is 2.5.

Coastal Water Temperatures

Place Temperature

Stations

Nearby Weather Stations

Station Location Temp. Windchill Dew Point Humidity Wind Precip. Elev Updated Type
                   

Watches & Warnings

There are currently no watches in effect.